Terminal Aerodrome Forecast
Issued by NWS Sterling, VA

Home | Current Version | Previous Version | Text Only | Print | Product List | Glossary On
Versions: 1 2 3 4 5 6 7 8 9 10 11 12 13 14 15 16
000
FTUS41 KLWX 212333
TAFMRB
TAF
KMRB 212333Z 2200/2224 VRB04KT P6SM SCT100
     FM220600 VRB03KT 5SM BR BKN050
     FM221200 VRB03KT P6SM BKN130
     FM222000 24007KT P6SM BKN050=

USA.gov is the U.S. government's official web portal to all federal, state and local government web resources and services.